sensor_id;sensor_type;location;lat;lon;timestamp;pressure;altitude;pressure_sealevel;temperature;humidity
45541;BME280;31265;49.680;8.608;2023-05-01T00:00:27;100536.63;;;12.77;100.00
45541;BME280;31265;49.680;8.608;2023-05-01T00:02:55;100542.44;;;12.71;100.00
45541;BME280;31265;49.680;8.608;2023-05-01T00:05:25;100537.19;;;12.75;100.00
45541;BME280;31265;49.680;8.608;2023-05-01T00:07:55;100538.00;;;12.68;100.00
45541;BME280;31265;49.680;8.608;2023-05-01T00:10:23;100535.78;;;12.66;100.00
45541;BME280;31265;49.680;8.608;2023-05-01T00:12:55;100536.19;;;12.63;100.00
45541;BME280;31265;49.680;8.608;2023-05-01T00:15:23;100531.59;;;12.58;100.00
45541;BME280;31265;49.680;8.608;2023-05-01T00:17:54;100536.00;;;12.61;100.00
45541;BME280;31265;49.680;8.608;2023-05-01T00:20:26;100523.84;;;12.56;100.00
45541;BME280;31265;49.680;8.608;2023-05-01T00:22:54;100522.00;;;12.51;100.00
45541;BME280;31265;49.680;8.608;2023-05-01T00:25:23;100510.31;;;12.53;100.00
45541;BME280;31265;49.680;8.608;2023-05-01T00:27:51;100516.22;;;12.57;100.00
45541;BME280;31265;49.680;8.608;2023-05-01T00:30:24;100505.66;;;12.55;100.00
45541;BME280;31265;49.680;8.608;2023-05-01T00:32:53;100511.53;;;12.42;100.00
45541;BME280;31265;49.680;8.608;2023-05-01T00:35:28;100499.69;;;12.59;100.00
45541;BME280;31265;49.680;8.608;2023-05-01T00:37:56;100502.31;;;12.57;100.00
45541;BME280;31265;49.680;8.608;2023-05-01T00:40:25;100501.63;;;12.48;100.00
45541;BME280;31265;49.680;8.608;2023-05-01T00:42:53;100499.19;;;12.53;100.00
45541;BME280;31265;49.680;8.608;2023-05-01T00:45:25;100494.13;;;12.59;100.00
45541;BME280;31265;49.680;8.608;2023-05-01T00:47:59;100490.66;;;12.51;100.00
45541;BME280;31265;49.680;8.608;2023-05-01T00:50:29;100487.56;;;12.46;100.00
45541;BME280;31265;49.680;8.608;2023-05-01T00:52:57;100487.72;;;12.48;100.00
45541;BME280;31265;49.680;8.608;2023-05-01T00:55:26;100481.25;;;12.46;100.00
45541;BME280;31265;49.680;8.608;2023-05-01T00:57:56;100478.06;;;12.50;100.00
45541;BME280;31265;49.680;8.608;2023-05-01T01:00:25;100479.13;;;12.54;100.00
45541;BME280;31265;49.680;8.608;2023-05-01T01:02:55;100475.44;;;12.52;100.00
45541;BME280;31265;49.680;8.608;2023-05-01T01:05:24;100465.13;;;12.44;100.00
45541;BME280;31265;49.680;8.608;2023-05-01T01:07:58;100465.44;;;12.48;100.00
45541;BME280;31265;49.680;8.608;2023-05-01T01:10:34;100458.75;;;12.34;100.00
45541;BME280;31265;49.680;8.608;2023-05-01T01:13:06;100464.44;;;12.36;100.00
45541;BME280;31265;49.680;8.608;2023-05-01T01:15:38;100456.34;;;12.31;100.00
45541;BME280;31265;49.680;8.608;2023-05-01T01:18:08;100453.31;;;12.19;100.00
45541;BME280;31265;49.680;8.608;2023-05-01T01:20:42;100453.31;;;12.19;100.00
45541;BME280;31265;49.680;8.608;2023-05-01T01:23:23;100446.56;;;12.30;100.00
45541;BME280;31265;49.680;8.608;2023-05-01T01:26:03;100446.22;;;12.25;100.00
45541;BME280;31265;49.680;8.608;2023-05-01T01:31:35;100444.91;;;12.09;100.00
45541;BME280;31265;49.680;8.608;2023-05-01T01:34:09;100436.22;;;12.05;100.00
45541;BME280;31265;49.680;8.608;2023-05-01T01:36:42;100429.75;;;12.02;100.00
45541;BME280;31265;49.680;8.608;2023-05-01T01:39:15;100439.56;;;12.03;100.00
45541;BME280;31265;49.680;8.608;2023-05-01T01:41:55;100446.50;;;11.95;100.00
45541;BME280;31265;49.680;8.608;2023-05-01T01:44:27;100440.59;;;11.91;100.00
45541;BME280;31265;49.680;8.608;2023-05-01T01:46:57;100437.84;;;11.83;100.00
45541;BME280;31265;49.680;8.608;2023-05-01T01:49:28;100438.34;;;11.97;100.00
45541;BME280;31265;49.680;8.608;2023-05-01T01:51:59;100429.25;;;12.14;100.00
45541;BME280;31265;49.680;8.608;2023-05-01T01:54:29;100432.03;;;12.31;100.00
45541;BME280;31265;49.680;8.608;2023-05-01T01:57:00;100433.72;;;12.34;100.00
45541;BME280;31265;49.680;8.608;2023-05-01T01:59:29;100430.66;;;12.22;100.00
45541;BME280;31265;49.680;8.608;2023-05-01T02:02:01;100424.59;;;12.16;100.00
45541;BME280;31265;49.680;8.608;2023-05-01T02:04:31;100426.81;;;12.18;100.00
45541;BME280;31265;49.680;8.608;2023-05-01T02:06:59;100422.72;;;12.19;100.00
45541;BME280;31265;49.680;8.608;2023-05-01T02:09:34;100421.50;;;12.12;100.00
45541;BME280;31265;49.680;8.608;2023-05-01T02:12:03;100421.09;;;12.16;100.00
45541;BME280;31265;49.680;8.608;2023-05-01T02:14:36;100419.38;;;12.20;100.00
45541;BME280;31265;49.680;8.608;2023-05-01T02:17:05;100415.28;;;12.21;99.55
45541;BME280;31265;49.680;8.608;2023-05-01T02:19:36;100417.31;;;12.21;100.00
45541;BME280;31265;49.680;8.608;2023-05-01T02:22:06;100416.34;;;12.26;99.48
45541;BME280;31265;49.680;8.608;2023-05-01T02:24:34;100413.97;;;12.22;99.07
45541;BME280;31265;49.680;8.608;2023-05-01T02:27:06;100418.38;;;12.25;100.00
45541;BME280;31265;49.680;8.608;2023-05-01T02:29:35;100425.44;;;12.26;100.00
45541;BME280;31265;49.680;8.608;2023-05-01T02:32:03;100415.28;;;12.21;100.00
45541;BME280;31265;49.680;8.608;2023-05-01T02:34:33;100419.22;;;12.36;98.95
45541;BME280;31265;49.680;8.608;2023-05-01T02:37:02;100412.25;;;12.27;100.00
45541;BME280;31265;49.680;8.608;2023-05-01T02:39:34;100414.31;;;12.26;100.00
45541;BME280;31265;49.680;8.608;2023-05-01T02:42:03;100416.84;;;12.32;99.88
45541;BME280;31265;49.680;8.608;2023-05-01T02:44:52;100415.53;;;12.33;99.68
45541;BME280;31265;49.680;8.608;2023-05-01T02:47:22;100402.59;;;12.28;99.30
45541;BME280;31265;49.680;8.608;2023-05-01T02:49:53;100403.84;;;12.17;100.00
45541;BME280;31265;49.680;8.608;2023-05-01T02:52:27;100409.06;;;12.13;100.00
45541;BME280;31265;49.680;8.608;2023-05-01T02:55:13;100401.31;;;12.12;100.00
45541;BME280;31265;49.680;8.608;2023-05-01T02:57:44;100397.63;;;12.09;100.00
45541;BME280;31265;49.680;8.608;2023-05-01T03:00:13;100399.34;;;12.22;100.00
45541;BME280;31265;49.680;8.608;2023-05-01T03:02:43;100397.53;;;12.17;100.00
45541;BME280;31265;49.680;8.608;2023-05-01T03:05:12;100395.72;;;12.12;100.00
45541;BME280;31265;49.680;8.608;2023-05-01T03:07:42;100399.34;;;12.22;100.00
45541;BME280;31265;49.680;8.608;2023-05-01T03:10:10;100398.56;;;12.21;100.00
45541;BME280;31265;49.680;8.608;2023-05-01T03:12:38;100390.91;;;12.12;100.00
45541;BME280;31265;49.680;8.608;2023-05-01T03:15:11;100395.47;;;12.17;100.00
45541;BME280;31265;49.680;8.608;2023-05-01T03:17:39;100386.63;;;12.11;100.00
45541;BME280;31265;49.680;8.608;2023-05-01T03:20:08;100383.78;;;12.19;100.00
45541;BME280;31265;49.680;8.608;2023-05-01T03:22:36;100390.09;;;12.19;100.00
45541;BME280;31265;49.680;8.608;2023-05-01T03:25:10;100389.75;;;12.15;100.00
45541;BME280;31265;49.680;8.608;2023-05-01T03:27:41;100387.53;;;12.14;100.00
45541;BME280;31265;49.680;8.608;2023-05-01T03:30:10;100402.13;;;12.22;100.00
45541;BME280;31265;49.680;8.608;2023-05-01T03:32:40;100398.09;;;12.15;100.00
45541;BME280;31265;49.680;8.608;2023-05-01T03:35:16;100401.06;;;12.17;100.00
45541;BME280;31265;49.680;8.608;2023-05-01T03:37:45;100405.06;;;12.24;100.00
45541;BME280;31265;49.680;8.608;2023-05-01T03:40:23;100387.44;;;12.21;100.00
45541;BME280;31265;49.680;8.608;2023-05-01T03:43:10;100401.84;;;12.10;100.00
45541;BME280;31265;49.680;8.608;2023-05-01T03:45:39;100393.09;;;12.14;100.00
45541;BME280;31265;49.680;8.608;2023-05-01T03:48:10;100399.47;;;12.07;100.00
45541;BME280;31265;49.680;8.608;2023-05-01T03:50:40;100399.34;;;11.79;100.00
45541;BME280;31265;49.680;8.608;2023-05-01T03:53:10;100395.44;;;11.57;100.00
45541;BME280;31265;49.680;8.608;2023-05-01T03:55:41;100399.50;;;11.31;100.00
45541;BME280;31265;49.680;8.608;2023-05-01T03:58:10;100402.03;;;11.12;100.00
45541;BME280;31265;49.680;8.608;2023-05-01T04:00:39;100393.75;;;11.04;100.00
45541;BME280;31265;49.680;8.608;2023-05-01T04:03:08;100389.56;;;10.95;100.00
45541;BME280;31265;49.680;8.608;2023-05-01T04:05:38;100385.69;;;10.91;100.00
45541;BME280;31265;49.680;8.608;2023-05-01T04:08:06;100383.25;;;10.95;100.00
45541;BME280;31265;49.680;8.608;2023-05-01T04:10:35;100397.41;;;10.82;100.00
45541;BME280;31265;49.680;8.608;2023-05-01T04:13:11;100395.56;;;10.76;100.00
45541;BME280;31265;49.680;8.608;2023-05-01T04:15:42;100393.75;;;10.71;100.00
45541;BME280;31265;49.680;8.608;2023-05-01T04:18:11;100397.25;;;10.72;100.00
45541;BME280;31265;49.680;8.608;2023-05-01T04:20:50;100398.69;;;10.81;100.00
45541;BME280;31265;49.680;8.608;2023-05-01T04:23:18;100397.03;;;10.77;100.00
45541;BME280;31265;49.680;8.608;2023-05-01T04:25:48;100398.53;;;10.79;100.00
45541;BME280;31265;49.680;8.608;2023-05-01T04:28:18;100394.84;;;10.76;100.00
45541;BME280;31265;49.680;8.608;2023-05-01T04:30:46;100394.69;;;10.66;100.00
45541;BME280;31265;49.680;8.608;2023-05-01T04:33:15;100393.97;;;10.58;100.00
45541;BME280;31265;49.680;8.608;2023-05-01T04:35:43;100398.44;;;10.53;100.00
45541;BME280;31265;49.680;8.608;2023-05-01T04:38:12;100395.31;;;10.49;100.00
45541;BME280;31265;49.680;8.608;2023-05-01T04:40:43;100401.41;;;10.48;100.00
45541;BME280;31265;49.680;8.608;2023-05-01T04:43:11;100398.44;;;10.46;100.00
45541;BME280;31265;49.680;8.608;2023-05-01T04:45:43;100401.06;;;10.44;100.00
45541;BME280;31265;49.680;8.608;2023-05-01T04:48:12;100402.72;;;10.47;100.00
45541;BME280;31265;49.680;8.608;2023-05-01T04:50:43;100402.72;;;10.47;100.00
45541;BME280;31265;49.680;8.608;2023-05-01T04:53:12;100394.00;;;10.50;100.00
45541;BME280;31265;49.680;8.608;2023-05-01T04:55:43;100397.91;;;10.47;100.00
45541;BME280;31265;49.680;8.608;2023-05-01T04:58:14;100398.81;;;10.50;100.00
45541;BME280;31265;49.680;8.608;2023-05-01T05:00:48;100396.41;;;10.54;100.00
45541;BME280;31265;49.680;8.608;2023-05-01T05:03:22;100398.22;;;10.59;100.00
45541;BME280;31265;49.680;8.608;2023-05-01T05:05:54;100405.59;;;10.64;100.00
45541;BME280;31265;49.680;8.608;2023-05-01T05:08:25;100389.31;;;10.68;100.00
45541;BME280;31265;49.680;8.608;2023-05-01T05:10:55;100392.06;;;10.76;100.00
45541;BME280;31265;49.680;8.608;2023-05-01T05:13:38;100400.38;;;10.76;100.00
45541;BME280;31265;49.680;8.608;2023-05-01T05:16:12;100401.31;;;10.79;100.00
45541;BME280;31265;49.680;8.608;2023-05-01T05:18:40;100391.84;;;10.82;100.00
45541;BME280;31265;49.680;8.608;2023-05-01T05:21:11;100400.03;;;10.72;100.00
45541;BME280;31265;49.680;8.608;2023-05-01T05:23:48;100399.84;;;10.70;100.00
45541;BME280;31265;49.680;8.608;2023-05-01T05:26:16;100401.66;;;10.75;100.00
45541;BME280;31265;49.680;8.608;2023-05-01T05:28:46;100398.16;;;10.74;100.00
45541;BME280;31265;49.680;8.608;2023-05-01T05:31:19;100400.38;;;10.76;100.00
45541;BME280;31265;49.680;8.608;2023-05-01T05:33:51;100394.63;;;10.82;100.00
45541;BME280;31265;49.680;8.608;2023-05-01T05:36:20;100400.53;;;10.86;100.00
45541;BME280;31265;49.680;8.608;2023-05-01T05:38:54;100403.31;;;10.86;100.00
45541;BME280;31265;49.680;8.608;2023-05-01T05:41:22;100402.38;;;10.83;100.00
45541;BME280;31265;49.680;8.608;2023-05-01T05:43:55;100400.69;;;10.88;100.00
45541;BME280;31265;49.680;8.608;2023-05-01T05:46:27;100399.34;;;10.96;100.00
45541;BME280;31265;49.680;8.608;2023-05-01T05:48:57;100395.56;;;11.09;100.00
45541;BME280;31265;49.680;8.608;2023-05-01T05:51:26;100393.88;;;11.14;100.00
45541;BME280;31265;49.680;8.608;2023-05-01T05:53:55;100393.84;;;11.22;100.00
45541;BME280;31265;49.680;8.608;2023-05-01T05:56:27;100395.53;;;11.42;100.00
45541;BME280;31265;49.680;8.608;2023-05-01T05:58:55;100385.38;;;11.62;100.00
45541;BME280;31265;49.680;8.608;2023-05-01T06:01:28;100392.84;;;11.77;100.00
45541;BME280;31265;49.680;8.608;2023-05-01T06:03:57;100386.56;;;11.76;100.00
45541;BME280;31265;49.680;8.608;2023-05-01T06:06:27;100397.28;;;12.05;100.00
45541;BME280;31265;49.680;8.608;2023-05-01T06:08:55;100394.91;;;12.19;100.00
45541;BME280;31265;49.680;8.608;2023-05-01T06:11:28;100386.16;;;12.40;100.00
45541;BME280;31265;49.680;8.608;2023-05-01T06:13:58;100391.88;;;12.59;100.00
45541;BME280;31265;49.680;8.608;2023-05-01T06:16:32;100389.66;;;12.58;100.00
45541;BME280;31265;49.680;8.608;2023-05-01T06:19:04;100388.63;;;12.80;100.00
45541;BME280;31265;49.680;8.608;2023-05-01T06:21:38;100394.03;;;13.05;100.00
45541;BME280;31265;49.680;8.608;2023-05-01T06:24:08;100386.63;;;13.18;100.00
45541;BME280;31265;49.680;8.608;2023-05-01T06:26:56;100382.09;;;13.49;100.00
45541;BME280;31265;49.680;8.608;2023-05-01T06:29:27;100384.47;;;13.53;100.00
45541;BME280;31265;49.680;8.608;2023-05-01T06:32:02;100381.84;;;13.55;100.00
45541;BME280;31265;49.680;8.608;2023-05-01T06:34:31;100384.38;;;13.70;100.00
45541;BME280;31265;49.680;8.608;2023-05-01T06:37:00;100381.78;;;14.11;100.00
45541;BME280;31265;49.680;8.608;2023-05-01T06:39:31;100381.94;;;14.23;100.00
45541;BME280;31265;49.680;8.608;2023-05-01T06:42:01;100380.47;;;14.22;100.00
45541;BME280;31265;49.680;8.608;2023-05-01T06:44:33;100391.75;;;14.44;100.00
45541;BME280;31265;49.680;8.608;2023-05-01T06:47:03;100386.19;;;14.34;100.00
45541;BME280;31265;49.680;8.608;2023-05-01T06:49:34;100391.19;;;14.26;100.00
45541;BME280;31265;49.680;8.608;2023-05-01T06:52:06;100387.38;;;14.40;100.00
45541;BME280;31265;49.680;8.608;2023-05-01T06:54:38;100394.16;;;14.57;100.00
45541;BME280;31265;49.680;8.608;2023-05-01T06:57:08;100393.81;;;14.72;100.00
45541;BME280;31265;49.680;8.608;2023-05-01T06:59:45;100393.38;;;14.76;100.00
45541;BME280;31265;49.680;8.608;2023-05-01T07:02:14;100398.22;;;14.85;100.00
45541;BME280;31265;49.680;8.608;2023-05-01T07:04:42;100389.97;;;14.87;100.00
45541;BME280;31265;49.680;8.608;2023-05-01T07:07:11;100389.41;;;14.89;100.00
45541;BME280;31265;49.680;8.608;2023-05-01T07:09:39;100396.47;;;14.80;100.00
45541;BME280;31265;49.680;8.608;2023-05-01T07:12:07;100397.03;;;14.88;100.00
45541;BME280;31265;49.680;8.608;2023-05-01T07:14:35;100394.75;;;15.16;100.00
45541;BME280;31265;49.680;8.608;2023-05-01T07:17:04;100389.25;;;15.27;100.00
45541;BME280;31265;49.680;8.608;2023-05-01T07:19:35;100389.69;;;15.34;100.00
45541;BME280;31265;49.680;8.608;2023-05-01T07:22:03;100400.41;;;15.37;100.00
45541;BME280;31265;49.680;8.608;2023-05-01T07:24:31;100394.09;;;15.37;100.00
45541;BME280;31265;49.680;8.608;2023-05-01T07:26:59;100388.78;;;15.41;100.00
45541;BME280;31265;49.680;8.608;2023-05-01T07:29:27;100386.66;;;15.51;100.00
45541;BME280;31265;49.680;8.608;2023-05-01T07:31:55;100389.72;;;15.55;100.00
45541;BME280;31265;49.680;8.608;2023-05-01T07:34:24;100390.72;;;15.60;100.00
45541;BME280;31265;49.680;8.608;2023-05-01T07:36:55;100392.38;;;15.84;100.00
45541;BME280;31265;49.680;8.608;2023-05-01T07:39:23;100392.00;;;16.00;100.00
45541;BME280;31265;49.680;8.608;2023-05-01T07:41:57;100398.38;;;16.12;100.00
45541;BME280;31265;49.680;8.608;2023-05-01T07:44:25;100387.31;;;16.14;100.00
45541;BME280;31265;49.680;8.608;2023-05-01T07:46:53;100396.00;;;15.97;100.00
45541;BME280;31265;49.680;8.608;2023-05-01T07:49:22;100393.06;;;15.95;100.00
45541;BME280;31265;49.680;8.608;2023-05-01T07:51:50;100395.13;;;15.94;100.00
45541;BME280;31265;49.680;8.608;2023-05-01T07:54:19;100395.53;;;16.00;100.00
45541;BME280;31265;49.680;8.608;2023-05-01T07:56:50;100400.47;;;15.90;100.00
45541;BME280;31265;49.680;8.608;2023-05-01T07:59:18;100390.31;;;16.06;100.00
45541;BME280;31265;49.680;8.608;2023-05-01T08:01:48;100386.78;;;15.84;100.00
45541;BME280;31265;49.680;8.608;2023-05-01T08:04:18;100390.06;;;15.81;100.00
45541;BME280;31265;49.680;8.608;2023-05-01T08:06:48;100388.78;;;15.72;100.00
45541;BME280;31265;49.680;8.608;2023-05-01T08:09:16;100387.59;;;15.97;100.00
45541;BME280;31265;49.680;8.608;2023-05-01T08:11:46;100389.19;;;15.78;100.00
45541;BME280;31265;49.680;8.608;2023-05-01T08:14:14;100379.94;;;15.76;100.00
45541;BME280;31265;49.680;8.608;2023-05-01T08:16:45;100388.94;;;16.17;100.00
45541;BME280;31265;49.680;8.608;2023-05-01T08:19:13;100387.38;;;16.47;100.00
45541;BME280;31265;49.680;8.608;2023-05-01T08:21:43;100390.94;;;16.71;100.00
45541;BME280;31265;49.680;8.608;2023-05-01T08:24:11;100392.47;;;16.51;100.00
45541;BME280;31265;49.680;8.608;2023-05-01T08:26:42;100389.44;;;16.47;100.00
45541;BME280;31265;49.680;8.608;2023-05-01T08:29:12;100385.78;;;16.56;100.00
45541;BME280;31265;49.680;8.608;2023-05-01T08:31:46;100387.00;;;16.53;100.00
45541;BME280;31265;49.680;8.608;2023-05-01T08:34:14;100389.59;;;16.61;100.00
45541;BME280;31265;49.680;8.608;2023-05-01T08:36:45;100390.34;;;17.06;100.00
45541;BME280;31265;49.680;8.608;2023-05-01T08:39:13;100393.50;;;17.12;96.05
45541;BME280;31265;49.680;8.608;2023-05-01T08:41:44;100386.56;;;17.25;100.00
45541;BME280;31265;49.680;8.608;2023-05-01T08:44:15;100383.75;;;17.60;95.95
45541;BME280;31265;49.680;8.608;2023-05-01T08:46:44;100385.69;;;17.70;92.50
45541;BME280;31265;49.680;8.608;2023-05-01T08:49:14;100383.78;;;17.49;94.11
45541;BME280;31265;49.680;8.608;2023-05-01T08:51:44;100378.84;;;17.73;91.46
45541;BME280;31265;49.680;8.608;2023-05-01T08:54:12;100385.53;;;18.03;92.13
45541;BME280;31265;49.680;8.608;2023-05-01T08:56:41;100382.53;;;17.87;89.58
45541;BME280;31265;49.680;8.608;2023-05-01T08:59:10;100379.09;;;18.00;86.09
45541;BME280;31265;49.680;8.608;2023-05-01T09:01:41;100389.22;;;18.31;82.59
45541;BME280;31265;49.680;8.608;2023-05-01T09:04:11;100375.63;;;18.39;82.90
45541;BME280;31265;49.680;8.608;2023-05-01T09:06:40;100383.72;;;18.59;79.90
45541;BME280;31265;49.680;8.608;2023-05-01T09:09:10;100390.53;;;18.93;79.01
45541;BME280;31265;49.680;8.608;2023-05-01T09:11:40;100390.47;;;19.19;77.05
45541;BME280;31265;49.680;8.608;2023-05-01T09:14:13;100387.66;;;19.19;73.36
45541;BME280;31265;49.680;8.608;2023-05-01T09:16:44;100381.31;;;18.79;77.21
45541;BME280;31265;49.680;8.608;2023-05-01T09:19:14;100383.19;;;18.11;76.55
45541;BME280;31265;49.680;8.608;2023-05-01T09:21:45;100382.19;;;18.18;76.20
45541;BME280;31265;49.680;8.608;2023-05-01T09:24:21;100376.09;;;18.73;73.63
45541;BME280;31265;49.680;8.608;2023-05-01T09:26:50;100373.28;;;18.73;74.75
45541;BME280;31265;49.680;8.608;2023-05-01T09:32:16;100380.97;;;18.98;73.63
45541;BME280;31265;49.680;8.608;2023-05-01T09:34:47;100369.28;;;18.90;74.48
45541;BME280;31265;49.680;8.608;2023-05-01T09:37:23;100374.47;;;18.56;77.98
45541;BME280;31265;49.680;8.608;2023-05-01T09:40:03;100380.13;;;18.44;77.78
45541;BME280;31265;49.680;8.608;2023-05-01T09:42:34;100381.03;;;18.35;77.85
45541;BME280;31265;49.680;8.608;2023-05-01T09:45:04;100378.06;;;18.45;78.30
45541;BME280;31265;49.680;8.608;2023-05-01T09:47:34;100377.44;;;18.98;75.42
45541;BME280;31265;49.680;8.608;2023-05-01T09:50:03;100385.38;;;19.15;73.14
45541;BME280;31265;49.680;8.608;2023-05-01T09:52:31;100376.47;;;18.79;77.22
45541;BME280;31265;49.680;8.608;2023-05-01T09:55:12;100380.31;;;18.86;74.93
45541;BME280;31265;49.680;8.608;2023-05-01T09:57:41;100377.25;;;19.63;69.39
45541;BME280;31265;49.680;8.608;2023-05-01T10:00:11;100379.00;;;20.41;66.52
45541;BME280;31265;49.680;8.608;2023-05-01T10:02:42;100383.22;;;20.70;65.87
45541;BME280;31265;49.680;8.608;2023-05-01T10:05:10;100379.53;;;20.37;68.34
45541;BME280;31265;49.680;8.608;2023-05-01T10:07:39;100374.19;;;20.14;65.23
45541;BME280;31265;49.680;8.608;2023-05-01T10:10:15;100381.16;;;20.56;65.07
45541;BME280;31265;49.680;8.608;2023-05-01T10:12:49;100383.00;;;20.36;67.21
45541;BME280;31265;49.680;8.608;2023-05-01T10:15:17;100386.13;;;19.98;67.20
45541;BME280;31265;49.680;8.608;2023-05-01T10:17:54;100385.00;;;20.63;64.39
45541;BME280;31265;49.680;8.608;2023-05-01T10:20:23;100382.22;;;21.11;61.99
45541;BME280;31265;49.680;8.608;2023-05-01T10:22:51;100386.41;;;21.10;59.70
45541;BME280;31265;49.680;8.608;2023-05-01T10:25:21;100381.16;;;21.02;59.44
45541;BME280;31265;49.680;8.608;2023-05-01T10:27:52;100369.03;;;21.81;57.74
45541;BME280;31265;49.680;8.608;2023-05-01T10:30:20;100371.84;;;21.31;59.99
45541;BME280;31265;49.680;8.608;2023-05-01T10:32:48;100375.31;;;21.30;57.34
45541;BME280;31265;49.680;8.608;2023-05-01T10:35:23;100371.50;;;21.23;56.34
45541;BME280;31265;49.680;8.608;2023-05-01T10:37:56;100375.41;;;21.32;58.38
45541;BME280;31265;49.680;8.608;2023-05-01T10:40:45;100373.56;;;21.38;61.94
45541;BME280;31265;49.680;8.608;2023-05-01T10:43:18;100368.44;;;21.66;62.57
45541;BME280;31265;49.680;8.608;2023-05-01T10:45:50;100374.91;;;20.74;62.59
45541;BME280;31265;49.680;8.608;2023-05-01T10:51:15;100363.63;;;20.28;60.91
45541;BME280;31265;49.680;8.608;2023-05-01T10:53:46;100357.00;;;21.80;65.69
45541;BME280;31265;49.680;8.608;2023-05-01T10:59:14;100362.75;;;21.82;58.46
45541;BME280;31265;49.680;8.608;2023-05-01T11:01:46;100350.91;;;21.52;60.11
45541;BME280;31265;49.680;8.608;2023-05-01T11:07:16;100355.59;;;21.97;61.18
45541;BME280;31265;49.680;8.608;2023-05-01T11:09:45;100346.28;;;22.28;55.71
45541;BME280;31265;49.680;8.608;2023-05-01T11:12:15;100350.47;;;20.78;62.34
45541;BME280;31265;49.680;8.608;2023-05-01T11:15:03;100352.69;;;20.50;63.14
45541;BME280;31265;49.680;8.608;2023-05-01T11:17:46;100349.75;;;20.94;59.68
45541;BME280;31265;49.680;8.608;2023-05-01T11:23:03;100344.72;;;22.25;61.38
45541;BME280;31265;49.680;8.608;2023-05-01T11:25:33;100350.53;;;23.03;55.44
45541;BME280;31265;49.680;8.608;2023-05-01T11:28:02;100336.69;;;22.73;53.58
45541;BME280;31265;49.680;8.608;2023-05-01T11:30:37;100344.06;;;22.63;54.79
45541;BME280;31265;49.680;8.608;2023-05-01T11:33:09;100334.16;;;22.44;53.87
45541;BME280;31265;49.680;8.608;2023-05-01T11:35:38;100337.31;;;23.30;50.97
45541;BME280;31265;49.680;8.608;2023-05-01T11:38:16;100342.53;;;23.57;52.31
45541;BME280;31265;49.680;8.608;2023-05-01T11:40:45;100336.84;;;23.57;51.97
45541;BME280;31265;49.680;8.608;2023-05-01T11:43:21;100333.63;;;23.87;48.82
45541;BME280;31265;49.680;8.608;2023-05-01T11:45:50;100333.22;;;23.75;48.50
45541;BME280;31265;49.680;8.608;2023-05-01T11:48:20;100334.06;;;23.17;48.06
45541;BME280;31265;49.680;8.608;2023-05-01T11:50:49;100326.28;;;23.18;48.69
45541;BME280;31265;49.680;8.608;2023-05-01T11:53:19;100320.41;;;22.54;54.73
45541;BME280;31265;49.680;8.608;2023-05-01T11:55:47;100325.03;;;22.83;54.27
45541;BME280;31265;49.680;8.608;2023-05-01T11:58:15;100325.06;;;22.65;52.23
45541;BME280;31265;49.680;8.608;2023-05-01T12:00:44;100318.88;;;23.71;54.33
45541;BME280;31265;49.680;8.608;2023-05-01T12:03:13;100320.91;;;23.68;51.66
45541;BME280;31265;49.680;8.608;2023-05-01T12:05:43;100319.91;;;23.37;51.87
45541;BME280;31265;49.680;8.608;2023-05-01T12:08:15;100312.00;;;23.56;49.72
45541;BME280;31265;49.680;8.608;2023-05-01T12:10:48;100316.84;;;22.18;52.05
45541;BME280;31265;49.680;8.608;2023-05-01T12:13:17;100314.53;;;21.60;51.51
45541;BME280;31265;49.680;8.608;2023-05-01T12:15:45;100313.69;;;21.74;52.25
45541;BME280;31265;49.680;8.608;2023-05-01T12:18:14;100308.25;;;22.89;52.27
45541;BME280;31265;49.680;8.608;2023-05-01T12:20:46;100316.00;;;22.69;52.78
45541;BME280;31265;49.680;8.608;2023-05-01T12:23:18;100316.28;;;23.35;49.99
45541;BME280;31265;49.680;8.608;2023-05-01T12:25:48;100314.81;;;23.34;50.81
45541;BME280;31265;49.680;8.608;2023-05-01T12:28:19;100306.69;;;23.24;48.08
45541;BME280;31265;49.680;8.608;2023-05-01T12:30:47;100306.84;;;22.32;59.54
45541;BME280;31265;49.680;8.608;2023-05-01T12:33:16;100305.56;;;22.00;56.54
45541;BME280;31265;49.680;8.608;2023-05-01T12:35:45;100307.66;;;21.81;54.19
45541;BME280;31265;49.680;8.608;2023-05-01T12:38:16;100297.25;;;22.40;59.38
45541;BME280;31265;49.680;8.608;2023-05-01T12:40:53;100302.44;;;21.58;55.58
45541;BME280;31265;49.680;8.608;2023-05-01T12:43:29;100306.63;;;22.64;57.18
45541;BME280;31265;49.680;8.608;2023-05-01T12:45:57;100309.22;;;23.78;49.65
45541;BME280;31265;49.680;8.608;2023-05-01T12:48:26;100304.94;;;24.21;51.84
45541;BME280;31265;49.680;8.608;2023-05-01T12:50:55;100308.16;;;24.33;48.85
45541;BME280;31265;49.680;8.608;2023-05-01T12:53:24;100303.84;;;23.66;49.98
45541;BME280;31265;49.680;8.608;2023-05-01T12:55:54;100297.78;;;23.54;50.92
45541;BME280;31265;49.680;8.608;2023-05-01T12:58:23;100306.41;;;23.16;49.77
45541;BME280;31265;49.680;8.608;2023-05-01T13:00:51;100300.41;;;23.06;47.49
45541;BME280;31265;49.680;8.608;2023-05-01T13:03:21;100295.25;;;22.24;51.30
45541;BME280;31265;49.680;8.608;2023-05-01T13:05:54;100296.63;;;21.54;51.19
45541;BME280;31265;49.680;8.608;2023-05-01T13:08:26;100291.97;;;21.11;52.18
45541;BME280;31265;49.680;8.608;2023-05-01T13:10:57;100287.56;;;21.39;56.66
45541;BME280;31265;49.680;8.608;2023-05-01T13:13:26;100295.69;;;21.65;52.87
45541;BME280;31265;49.680;8.608;2023-05-01T13:16:05;100286.69;;;21.86;50.90
45541;BME280;31265;49.680;8.608;2023-05-01T13:18:38;100285.50;;;22.65;56.71